Richmond, Maine
Current Conditions -  °F | °C
As of 1:53 PM on Monday 20 Oct 2014 (Local Time) from KIWI Reporting Station
Clear Clear  
Wind Chill: 50°   Ceiling: Unl
Heat Index: 50°   Visibility: 10mi
Dew Point: 27°   Wind: 5mph
Humidity: 41%   Direction: NA
Pressure: 29.95"   Gusts: NA
Location:  44.09°N, 69.8°W
Report Text: KIWI 201753Z AUTO VRB04KT 10SM CLR 10/M03 A2995 RMK AO2 SLP141 T01001028 10100 20033 56016
Loading
Personal Weather Stations






























Interactive Weather Map New forecast layout! Learn more

10-Day Weather Forecast

Advertisements
Track Severe Weather on mobile